Thunder radar more information blitzortung!


Radar de pluja more information rain snow radar


Visita la nostra xarxa de llocs de meteo:

Template documentation
and downloads

And another site



No particular awareness of the weather is required.    There are no Weather-warnings

Pagina Historial Weather Underground text

Diari Resum Agost 15, 2017 Unitats:  Mètric    Imperial   Tant
« Previous Dia
SegĂźent Dia »
Diari Setmana Mensual Anual Personalitzada
  Maxima: Minima: Media:
Temperatura: 29.6 °C 17.2 °C 25.4 °C
Punt de rosada: 18.7 °C 12.2 °C 16.1 °C
Humitat: 78 % 43 % 58 %
Wind Speed: 24.8 km/h 0.0 km/h 8.3 km/h
RĂ fegues de vent: 24.8 km/h - -
Vent:- - East
Pression baro: 1018.8 hPa 1015.8 hPa -
Precipitacions: 0.0 mm    
Historical Graphs
 
 
Dades de taula per Agost 15, 2017
Temps Temperatura Punt de rosada Pression baro Vent Wind Speed RĂ fegues de vent Humitat Rainfall Rate (Hourly)
00:00 22.2 °C 13.8 °C 1017.8 hPa NNE 3.7 km/h 3.7 km/h 59 % 0.0 mm
00:05 22.0 °C 13.9 °C 1017.8 hPa NE 2.6 km/h   60 % 0.0 mm
00:10 22.0 °C 13.9 °C 1017.8 hPa NE 3.7 km/h 3.7 km/h 60 % 0.0 mm
00:15 21.9 °C 14.1 °C 1017.8 hPa NE 1.9 km/h   61 % 0.0 mm
00:55 17.5 °C 13.2 °C 1017.8 hPa WSW 1.6 km/h 1.6 km/h 76 % 0.0 mm
01:05 17.4 °C 13.1 °C 1016.8 hPa Calm     76 % 0.0 mm
01:15 17.3 °C 13.2 °C 1016.8 hPa Calm     77 % 0.0 mm
01:25 17.4 °C 13.3 °C 1017.8 hPa Calm     77 % 0.0 mm
01:35 17.4 °C 13.3 °C 1016.8 hPa Calm   1.6 km/h 77 % 0.0 mm
01:45 17.5 °C 13.6 °C 1016.8 hPa Calm     78 % 0.0 mm
01:55 17.5 °C 13.6 °C 1016.8 hPa Calm   4.8 km/h 78 % 0.0 mm
02:05 17.3 °C 13.2 °C 1017.8 hPa NE 3.2 km/h 3.2 km/h 77 % 0.0 mm
02:15 17.2 °C 12.7 °C 1017.8 hPa NE 1.6 km/h 4.8 km/h 75 % 0.0 mm
02:25 17.4 °C 12.5 °C 1017.8 hPa NNE 1.6 km/h 4.8 km/h 73 % 0.0 mm
02:35 17.7 °C 12.2 °C 1017.8 hPa NNE 3.2 km/h 4.8 km/h 70 % 0.0 mm
02:45 18.0 °C 12.2 °C 1017.8 hPa North 1.6 km/h 6.4 km/h 69 % 0.0 mm
02:55 18.5 °C 12.5 °C 1017.8 hPa Calm   3.2 km/h 68 % 0.0 mm
03:05 18.1 °C 12.3 °C 1017.8 hPa WSW 3.2 km/h 4.8 km/h 69 % 0.0 mm
03:15 18.0 °C 12.7 °C 1017.8 hPa SW 1.6 km/h 4.8 km/h 71 % 0.0 mm
03:25 18.2 °C 13.1 °C 1017.8 hPa WSW 3.2 km/h 3.2 km/h 72 % 0.0 mm
03:35 18.9 °C 13.9 °C 1017.8 hPa SW 1.6 km/h 3.2 km/h 73 % 0.0 mm
03:45 19.6 °C 13.8 °C 1017.8 hPa East 4.8 km/h 6.4 km/h 69 % 0.0 mm
03:55 20.4 °C 14.1 °C 1017.8 hPa NNE 1.6 km/h 6.4 km/h 67 % 0.0 mm
04:05 20.6 °C 13.6 °C 1017.8 hPa North 3.2 km/h 6.4 km/h 64 % 0.0 mm
04:15 21.0 °C 13.4 °C 1017.8 hPa North 3.2 km/h 4.8 km/h 62 % 0.0 mm
04:25 21.1 °C 13.1 °C 1017.8 hPa NNE 3.2 km/h 9.7 km/h 60 % 0.0 mm
04:35 21.1 °C 12.8 °C 1017.8 hPa NNE 8.0 km/h 12.9 km/h 59 % 0.0 mm
04:45 21.8 °C 13.2 °C 1017.8 hPa NNE 4.8 km/h 6.4 km/h 58 % 0.0 mm
04:55 22.1 °C 12.9 °C 1017.8 hPa NNE 4.8 km/h 9.7 km/h 56 % 0.0 mm
05:05 22.7 °C 13.2 °C 1017.8 hPa NNE 3.2 km/h 8.0 km/h 55 % 0.0 mm
05:15 23.2 °C 13.4 °C 1017.8 hPa NNE 4.8 km/h 9.7 km/h 54 % 0.0 mm
05:25 23.6 °C 13.4 °C 1017.8 hPa NNE 4.8 km/h 4.8 km/h 53 % 0.0 mm
05:35 24.1 °C 13.6 °C 1017.8 hPa NNE 8.0 km/h 8.0 km/h 52 % 0.0 mm
05:45 24.5 °C 13.7 °C 1017.8 hPa NE 4.8 km/h 8.0 km/h 51 % 0.0 mm
10:52 25.7 °C 14.2 °C 1018.8 hPa East 5.6 km/h 5.6 km/h 49 % 0.0 mm
10:53 25.7 °C 14.2 °C 1018.8 hPa ESE 6.1 km/h 6.1 km/h 49 % 0.0 mm
10:58 25.6 °C 14.1 °C 1018.8 hPa NE 7.6 km/h 7.6 km/h 49 % 0.0 mm
11:03 25.6 °C 14.1 °C 1017.8 hPa NNW 3.7 km/h 3.7 km/h 49 % 0.0 mm
11:08 25.8 °C 14.3 °C 1017.8 hPa NE 7.4 km/h 7.4 km/h 49 % 0.0 mm
11:13 26.1 °C 14.2 °C 1017.8 hPa ESE 3.9 km/h 4.7 km/h 48 % 0.0 mm
11:18 26.8 °C 14.9 °C 1017.8 hPa ENE 5.8 km/h 5.8 km/h 48 % 0.0 mm
11:23 26.8 °C 14.9 °C 1017.8 hPa SE 7.9 km/h 7.9 km/h 48 % 0.0 mm
11:28 26.7 °C 14.8 °C 1017.8 hPa ESE 11.1 km/h 11.1 km/h 48 % 0.0 mm
11:33 26.8 °C 14.9 °C 1017.8 hPa ENE 7.4 km/h 7.4 km/h 48 % 0.0 mm
11:38 27.0 °C 14.7 °C 1017.8 hPa East 4.2 km/h 4.2 km/h 47 % 0.0 mm
11:43 27.3 °C 14.7 °C 1017.8 hPa East 7.4 km/h 7.4 km/h 46 % 0.0 mm
11:48 27.5 °C 14.8 °C 1017.8 hPa East 7.9 km/h 7.9 km/h 46 % 0.0 mm
11:53 27.7 °C 15.1 °C 1017.8 hPa ENE 7.4 km/h 7.4 km/h 46 % 0.0 mm
11:58 27.5 °C 15.2 °C 1017.8 hPa East 6.1 km/h 6.1 km/h 47 % 0.0 mm
12:03 28.2 °C 15.5 °C 1017.8 hPa East 9.3 km/h 9.3 km/h 46 % 0.0 mm
12:08 28.2 °C 15.5 °C 1017.8 hPa SE 7.4 km/h 7.4 km/h 46 % 0.0 mm
12:13 29.0 °C 15.5 °C 1017.8 hPa South 9.3 km/h 9.3 km/h 44 % 0.0 mm
12:18 29.1 °C 15.6 °C 1017.8 hPa ENE 9.3 km/h 9.3 km/h 44 % 0.0 mm
12:23 28.3 °C 14.9 °C 1017.8 hPa ESE 14.8 km/h 14.8 km/h 44 % 0.0 mm
12:28 28.5 °C 15.1 °C 1017.8 hPa SE 9.3 km/h 9.3 km/h 44 % 0.0 mm
12:33 28.6 °C 15.2 °C 1017.8 hPa East 13.0 km/h 13.0 km/h 44 % 0.0 mm
12:38 28.8 °C 15.3 °C 1017.8 hPa ESE 13.0 km/h 13.0 km/h 44 % 0.0 mm
12:43 29.0 °C 15.2 °C 1017.8 hPa SE 7.4 km/h 7.4 km/h 43 % 0.0 mm
12:48 29.1 °C 15.6 °C 1018.8 hPa NE 9.3 km/h 9.3 km/h 44 % 0.0 mm
12:53 29.0 °C 15.5 °C 1018.8 hPa ESE 14.8 km/h 14.8 km/h 44 % 0.0 mm
12:58 29.4 °C 15.9 °C 1017.8 hPa ESE 13.0 km/h 13.0 km/h 44 % 0.0 mm
13:03 29.3 °C 16.1 °C 1017.8 hPa ESE 16.7 km/h 16.7 km/h 45 % 0.0 mm
13:08 29.3 °C 16.1 °C 1017.8 hPa ENE 13.0 km/h 13.0 km/h 45 % 0.0 mm
13:13 29.2 °C 16.4 °C 1017.8 hPa North 16.1 km/h 16.1 km/h 46 % 0.0 mm
13:18 29.5 °C 17.0 °C 1017.8 hPa SSE 13.0 km/h 13.0 km/h 47 % 0.0 mm
13:23 29.6 °C 17.1 °C 1017.8 hPa ESE 11.1 km/h 11.1 km/h 47 % 0.0 mm
13:28 29.0 °C 16.6 °C 1017.8 hPa ESE 17.5 km/h 17.5 km/h 47 % 0.0 mm
13:33 28.6 °C 16.8 °C 1017.8 hPa ESE 20.4 km/h 20.4 km/h 49 % 0.0 mm
13:38 28.6 °C 16.8 °C 1017.8 hPa SE 16.7 km/h 16.7 km/h 49 % 0.0 mm
13:43 28.7 °C 17.2 °C 1017.8 hPa ESE 18.5 km/h 18.5 km/h 50 % 0.0 mm
13:48 28.4 °C 17.0 °C 1017.8 hPa ESE 16.7 km/h 16.7 km/h 50 % 0.0 mm
13:53 28.6 °C 16.8 °C 1017.8 hPa East 23.3 km/h 23.3 km/h 49 % 0.0 mm
13:58 28.1 °C 16.1 °C 1018.8 hPa ESE 24.1 km/h 24.1 km/h 48 % 0.0 mm
14:03 28.5 °C 16.1 °C 1018.8 hPa SSW 14.8 km/h 14.8 km/h 47 % 0.0 mm
14:08 28.6 °C 15.8 °C 1018.8 hPa SSE 16.7 km/h 16.7 km/h 46 % 0.0 mm
14:13 28.3 °C 15.9 °C 1017.8 hPa SSE 22.2 km/h 22.2 km/h 47 % 0.0 mm
14:18 28.5 °C 15.8 °C 1017.8 hPa ESE 16.7 km/h 16.7 km/h 46 % 0.0 mm
14:23 28.3 °C 15.9 °C 1017.8 hPa East 14.8 km/h 14.8 km/h 47 % 0.0 mm
14:28 28.0 °C 15.6 °C 1016.8 hPa ESE 20.4 km/h 20.4 km/h 47 % 0.0 mm
14:33 28.2 °C 16.2 °C 1016.8 hPa NNE 16.7 km/h 16.7 km/h 48 % 0.0 mm
14:35 28.2 °C 15.8 °C 1016.8 hPa ESE 24.8 km/h 24.8 km/h 47 % 0.0 mm
14:40 27.9 °C 15.6 °C 1016.8 hPa ESE 18.5 km/h 18.5 km/h 47 % 0.0 mm
14:45 28.0 °C 15.9 °C 1017.8 hPa SSE 13.0 km/h 13.0 km/h 48 % 0.0 mm
14:50 28.6 °C 16.5 °C 1017.8 hPa SSE 15.6 km/h 15.6 km/h 48 % 0.0 mm
14:55 28.0 °C 15.9 °C 1017.8 hPa ESE 20.4 km/h 20.4 km/h 48 % 0.0 mm
15:00 27.8 °C 16.1 °C 1017.8 hPa SSE 14.8 km/h 14.8 km/h 49 % 0.0 mm
15:05 27.9 °C 16.2 °C 1017.8 hPa ENE 18.5 km/h 18.5 km/h 49 % 0.0 mm
15:10 28.4 °C 16.7 °C 1017.8 hPa ESE 14.8 km/h 14.8 km/h 49 % 0.0 mm
15:15 28.2 °C 16.2 °C 1017.8 hPa ENE 20.4 km/h 20.4 km/h 48 % 0.0 mm
15:20 28.3 °C 16.2 °C 1017.8 hPa ENE 18.5 km/h 18.5 km/h 48 % 0.0 mm
15:25 28.4 °C 16.3 °C 1017.8 hPa ESE 14.8 km/h 14.8 km/h 48 % 0.0 mm
15:30 27.9 °C 15.6 °C 1016.8 hPa ENE 18.5 km/h 18.5 km/h 47 % 0.0 mm
15:35 28.0 °C 15.9 °C 1016.8 hPa East 18.5 km/h 18.5 km/h 48 % 0.0 mm
15:40 28.0 °C 15.9 °C 1016.8 hPa ENE 24.1 km/h 24.1 km/h 48 % 0.0 mm
15:45 27.9 °C 15.9 °C 1016.8 hPa East 13.0 km/h 13.0 km/h 48 % 0.0 mm
15:50 27.7 °C 15.7 °C 1016.8 hPa ESE 13.0 km/h 13.0 km/h 48 % 0.0 mm
15:55 27.8 °C 15.8 °C 1016.8 hPa East 20.4 km/h 20.4 km/h 48 % 0.0 mm
16:00 27.6 °C 15.6 °C 1016.8 hPa ENE 20.4 km/h 20.4 km/h 48 % 0.0 mm
16:05 27.7 °C 15.7 °C 1016.8 hPa East 9.3 km/h 9.3 km/h 48 % 0.0 mm
16:10 27.4 °C 15.1 °C 1016.8 hPa ENE 11.1 km/h 11.1 km/h 47 % 0.0 mm
16:15 27.4 °C 15.1 °C 1016.8 hPa East 9.3 km/h 9.3 km/h 47 % 0.0 mm
16:20 27.5 °C 15.2 °C 1016.8 hPa NE 14.8 km/h 14.8 km/h 47 % 0.0 mm
16:25 27.7 °C 15.4 °C 1016.8 hPa East 9.3 km/h 9.3 km/h 47 % 0.0 mm
16:30 28.1 °C 15.7 °C 1016.8 hPa ENE 13.0 km/h 13.0 km/h 47 % 0.0 mm
16:35 28.2 °C 15.8 °C 1016.8 hPa ENE 14.8 km/h 14.8 km/h 47 % 0.0 mm
16:40 28.0 °C 15.9 °C 1016.8 hPa NNE 11.1 km/h 11.1 km/h 48 % 0.0 mm
16:45 27.8 °C 15.8 °C 1015.8 hPa ESE 13.0 km/h 13.0 km/h 48 % 0.0 mm
16:50 28.0 °C 15.9 °C 1015.8 hPa ESE 11.1 km/h 11.1 km/h 48 % 0.0 mm
16:55 28.0 °C 15.9 °C 1015.8 hPa ESE 9.3 km/h 9.3 km/h 48 % 0.0 mm
17:00 28.3 °C 16.2 °C 1015.8 hPa ENE 11.1 km/h 11.1 km/h 48 % 0.0 mm
17:05 28.2 °C 16.2 °C 1015.8 hPa SSW 11.1 km/h 11.1 km/h 48 % 0.0 mm
17:10 28.0 °C 16.3 °C 1015.8 hPa ESE 9.5 km/h 9.5 km/h 49 % 0.0 mm
17:11 28.0 °C 16.3 °C 1015.8 hPa ESE 9.3 km/h 9.3 km/h 49 % 0.0 mm
17:16 27.6 °C 15.9 °C 1015.8 hPa ESE 6.4 km/h 6.4 km/h 49 % 0.0 mm
17:21 27.6 °C 16.2 °C 1015.8 hPa ENE 16.7 km/h 16.7 km/h 50 % 0.0 mm
17:26 27.7 °C 16.7 °C 1015.8 hPa East 9.3 km/h 9.3 km/h 51 % 0.0 mm
17:31 27.8 °C 16.7 °C 1015.8 hPa ESE 9.3 km/h 9.3 km/h 51 % 0.0 mm
17:36 27.9 °C 16.8 °C 1015.8 hPa ESE 9.3 km/h 9.3 km/h 51 % 0.0 mm
17:41 27.8 °C 16.7 °C 1015.8 hPa SE 9.3 km/h 9.3 km/h 51 % 0.0 mm
17:46 27.9 °C 16.8 °C 1015.8 hPa SSE 5.6 km/h 5.6 km/h 51 % 0.0 mm
17:51 27.8 °C 17.1 °C 1015.8 hPa SE 9.3 km/h 9.3 km/h 52 % 0.0 mm
17:56 28.0 °C 17.2 °C 1015.8 hPa SSE 5.6 km/h 5.6 km/h 52 % 0.0 mm
18:01 28.0 °C 17.2 °C 1015.8 hPa ESE 11.1 km/h 11.1 km/h 52 % 0.0 mm
18:06 27.9 °C 17.1 °C 1015.8 hPa SSW 7.4 km/h 7.4 km/h 52 % 0.0 mm
18:11 28.1 °C 17.3 °C 1015.8 hPa SW 9.3 km/h 9.3 km/h 52 % 0.0 mm
18:16 28.1 °C 17.3 °C 1015.8 hPa SSE 9.3 km/h 9.3 km/h 52 % 0.0 mm
18:21 27.7 °C 16.7 °C 1015.8 hPa SE 5.6 km/h 5.6 km/h 51 % 0.0 mm
18:26 27.7 °C 16.3 °C 1015.8 hPa SSE 9.3 km/h 9.3 km/h 50 % 0.0 mm
18:31 27.6 °C 15.9 °C 1015.8 hPa SSE 9.3 km/h 9.3 km/h 49 % 0.0 mm
18:36 27.6 °C 15.9 °C 1015.8 hPa SW 5.6 km/h 5.6 km/h 49 % 0.0 mm
18:41 27.6 °C 16.2 °C 1015.8 hPa ENE 2.3 km/h 2.3 km/h 50 % 0.0 mm
18:46 27.8 °C 16.4 °C 1016.8 hPa SSE 7.4 km/h 7.4 km/h 50 % 0.0 mm
18:51 27.7 °C 16.3 °C 1016.8 hPa East 3.7 km/h 3.7 km/h 50 % 0.0 mm
18:52 27.7 °C 16.3 °C 1016.8 hPa ESE 3.7 km/h   50 % 0.0 mm
18:57 27.7 °C 16.0 °C 1016.8 hPa East 4.2 km/h 4.2 km/h 49 % 0.0 mm
19:02 27.5 °C 16.2 °C 1016.8 hPa NE 5.6 km/h 5.6 km/h 50 % 0.0 mm
19:07 27.5 °C 16.2 °C 1016.8 hPa ENE 5.8 km/h 5.8 km/h 50 % 0.0 mm
19:12 27.4 °C 16.1 °C 1016.8 hPa ENE 9.3 km/h 9.3 km/h 50 % 0.0 mm
19:17 27.4 °C 16.1 °C 1015.8 hPa East 13.0 km/h 13.0 km/h 50 % 0.0 mm
19:22 27.3 °C 16.3 °C 1015.8 hPa ENE 14.8 km/h 14.8 km/h 51 % 0.0 mm
19:27 27.1 °C 16.1 °C 1015.8 hPa East 9.3 km/h 9.3 km/h 51 % 0.0 mm
19:32 27.1 °C 16.4 °C 1015.8 hPa NNE 9.3 km/h 9.3 km/h 52 % 0.0 mm
19:37 26.9 °C 17.4 °C 1015.8 hPa NE 14.8 km/h 14.8 km/h 56 % 0.0 mm
19:42 26.7 °C 18.0 °C 1015.8 hPa ENE 16.7 km/h 16.7 km/h 59 % 0.0 mm
19:47 26.6 °C 18.4 °C 1015.8 hPa SE 11.1 km/h 11.1 km/h 61 % 0.0 mm
19:52 26.3 °C 18.7 °C 1015.8 hPa NNE 13.0 km/h 13.0 km/h 63 % 0.0 mm
19:57 26.2 °C 18.3 °C 1015.8 hPa ESE 9.5 km/h 9.5 km/h 62 % 0.0 mm
20:02 26.1 °C 18.5 °C 1015.8 hPa ENE 14.8 km/h 14.8 km/h 63 % 0.0 mm
20:07 26.1 °C 18.5 °C 1015.8 hPa South 9.3 km/h 9.3 km/h 63 % 0.0 mm
20:12 26.2 °C 18.3 °C 1015.8 hPa SE 5.6 km/h 5.6 km/h 62 % 0.0 mm
20:17 26.1 °C 18.0 °C 1016.8 hPa SSE 9.3 km/h 9.3 km/h 61 % 0.0 mm
20:22 26.0 °C 17.9 °C 1016.8 hPa South 5.6 km/h 5.6 km/h 61 % 0.0 mm
20:27 26.0 °C 17.6 °C 1016.8 hPa ENE 5.8 km/h 5.8 km/h 60 % 0.0 mm
20:32 25.9 °C 17.6 °C 1016.8 hPa ENE 3.7 km/h 3.7 km/h 60 % 0.0 mm
20:37 25.8 °C 17.4 °C 1016.8 hPa ENE 5.3 km/h 5.3 km/h 60 % 0.0 mm
20:42 25.7 °C 17.6 °C 1016.8 hPa ESE 7.4 km/h 7.4 km/h 61 % 0.0 mm
20:47 25.6 °C 17.5 °C 1016.8 hPa ENE 5.6 km/h 5.6 km/h 61 % 0.0 mm
20:52 25.5 °C 17.7 °C 1016.8 hPa NNE 5.6 km/h 5.6 km/h 62 % 0.0 mm
20:57 25.4 °C 17.6 °C 1016.8 hPa NE 5.6 km/h 5.6 km/h 62 % 0.0 mm
21:02 25.3 °C 17.5 °C 1016.8 hPa East 5.6 km/h 5.6 km/h 62 % 0.0 mm
21:07 25.2 °C 17.7 °C 1016.8 hPa NNE 6.9 km/h 6.9 km/h 63 % 0.0 mm
21:12 25.1 °C 17.8 °C 1016.8 hPa NE 7.4 km/h 7.4 km/h 64 % 0.0 mm
21:17 25.0 °C 17.7 °C 1015.8 hPa NNE 4.7 km/h 4.7 km/h 64 % 0.0 mm
21:22 25.0 °C 17.9 °C 1015.8 hPa NE 4.2 km/h 4.2 km/h 65 % 0.0 mm
21:27 24.9 °C 18.1 °C 1015.8 hPa NNE 5.6 km/h 5.6 km/h 66 % 0.0 mm
21:32 24.8 °C 18.0 °C 1015.8 hPa NE 5.6 km/h 5.6 km/h 66 % 0.0 mm
21:35 22.2 °C 16.7 °C 1017.8 hPa North 1.6 km/h 1.6 km/h 71 % 0.0 mm
21:37 24.8 °C 18.3 °C 1015.8 hPa NE 3.7 km/h 3.7 km/h 67 % 0.0 mm
21:42 24.7 °C 18.2 °C 1015.8 hPa NNE 5.6 km/h 5.6 km/h 67 % 0.0 mm
21:45 22.1 °C 16.8 °C 1018.8 hPa NNE 3.2 km/h 6.4 km/h 72 % 0.0 mm
21:47 24.6 °C 18.1 °C 1015.8 hPa ENE 3.7 km/h 3.7 km/h 67 % 0.0 mm
21:52 24.6 °C 18.1 °C 1015.8 hPa ENE 3.7 km/h 3.7 km/h 67 % 0.0 mm
21:55 22.1 °C 16.8 °C 1018.8 hPa NE 3.2 km/h 4.8 km/h 72 % 0.0 mm
21:57 24.6 °C 18.3 °C 1015.8 hPa NE 3.7 km/h 3.7 km/h 68 % 0.0 mm
22:02 24.5 °C 18.2 °C 1016.8 hPa Calm     68 % 0.0 mm
22:05 21.9 °C 16.6 °C 1017.8 hPa NE 3.2 km/h 4.8 km/h 72 % 0.0 mm
22:07 24.4 °C 18.1 °C 1016.8 hPa Calm     68 % 0.0 mm
22:12 24.4 °C 18.1 °C 1016.8 hPa NNW 1.9 km/h 1.9 km/h 68 % 0.0 mm
22:15 21.9 °C 16.8 °C 1017.8 hPa NNE 1.6 km/h 3.2 km/h 73 % 0.0 mm
22:17 24.3 °C 18.2 °C 1016.8 hPa ENE 1.9 km/h   69 % 0.0 mm
22:22 24.3 °C 18.2 °C 1016.8 hPa ENE 3.7 km/h 3.7 km/h 69 % 0.0 mm
22:25 21.8 °C 16.7 °C 1017.8 hPa NNE 1.6 km/h 3.2 km/h 73 % 0.0 mm
22:27 24.3 °C 18.2 °C 1016.8 hPa NE 4.2 km/h 4.2 km/h 69 % 0.0 mm
22:32 24.2 °C 18.2 °C 1016.8 hPa NNE 5.6 km/h 5.8 km/h 69 % 0.0 mm
22:35 21.7 °C 16.7 °C 1017.8 hPa Calm     73 % 0.0 mm
22:37 24.1 °C 18.1 °C 1016.8 hPa ENE 7.4 km/h 7.4 km/h 69 % 0.0 mm
22:42 24.1 °C 18.3 °C 1016.8 hPa NE 4.2 km/h 4.2 km/h 70 % 0.0 mm
22:45 21.7 °C 16.9 °C 1017.8 hPa North 1.6 km/h 3.2 km/h 74 % 0.0 mm
22:47 24.1 °C 18.3 °C 1015.8 hPa NNE 6.1 km/h 6.1 km/h 70 % 0.0 mm
22:52 24.1 °C 18.3 °C 1015.8 hPa NNE 1.4 km/h   70 % 0.0 mm
22:55 21.9 °C 17.3 °C 1017.8 hPa North 1.6 km/h 3.2 km/h 75 % 0.0 mm
22:57 24.0 °C 18.2 °C 1015.8 hPa NNE 3.9 km/h 3.9 km/h 70 % 0.0 mm
23:02 23.9 °C 18.3 °C 1016.8 hPa NE 1.9 km/h   71 % 0.0 mm
23:05 22.1 °C 17.7 °C 1017.8 hPa NE 3.2 km/h 4.8 km/h 76 % 0.0 mm
23:07 23.8 °C 18.2 °C 1016.8 hPa NNW 1.9 km/h 1.9 km/h 71 % 0.0 mm
23:12 23.8 °C 18.2 °C 1016.8 hPa Calm     71 % 0.0 mm
23:15 22.2 °C 18.0 °C 1017.8 hPa NE 3.2 km/h 4.8 km/h 77 % 0.0 mm
23:17 23.7 °C 18.3 °C 1017.8 hPa Calm     72 % 0.0 mm
23:22 23.7 °C 18.3 °C 1017.8 hPa NE 5.6 km/h 5.6 km/h 72 % 0.0 mm
23:25 22.0 °C 17.8 °C 1017.8 hPa NE 3.2 km/h 4.8 km/h 77 % 0.0 mm
23:27 23.6 °C 18.1 °C 1017.8 hPa NNE 4.2 km/h 4.2 km/h 71 % 0.0 mm
23:32 23.6 °C 18.1 °C 1016.8 hPa North 7.4 km/h 7.4 km/h 71 % 0.0 mm
23:35 22.0 °C 17.8 °C 1017.8 hPa NNE 3.2 km/h 4.8 km/h 77 % 0.0 mm
23:37 23.7 °C 17.9 °C 1016.8 hPa NNE 9.3 km/h 9.3 km/h 70 % 0.0 mm
23:42 23.8 °C 18.0 °C 1016.8 hPa NNE 7.4 km/h 7.4 km/h 70 % 0.0 mm
23:45 22.1 °C 18.1 °C 1017.8 hPa NNE 3.2 km/h 4.8 km/h 78 % 0.0 mm
23:47 23.8 °C 17.8 °C 1016.8 hPa NE 11.1 km/h 11.1 km/h 69 % 0.0 mm
23:49 23.8 °C 17.8 °C 1016.8 hPa ENE 9.7 km/h 9.7 km/h 69 % 0.0 mm
23:54 23.8 °C 17.8 °C 1016.8 hPa NE 9.3 km/h 9.3 km/h 69 % 0.0 mm
23:55 22.0 °C 18.0 °C 1017.8 hPa NNE 3.2 km/h 4.8 km/h 78 % 0.0 mm
23:59 23.7 °C 17.4 °C 1016.8 hPa ENE 9.3 km/h 9.3 km/h 68 % 0.0 mm
Meteo Sesrovires
Elogis d' Weather Underground - 3.5 mb

Guio original per  Jim McMurry - jmcmurry@mwt.net Adaptat per a la plantilla per  Wim van der Kuil - Leuven-Template.eu

Trobareu la nostra informacio del temps tambe a:

Weather Underground

AWEKAS